sensor_id;sensor_type;location;lat;lon;timestamp;temperature;humidity
4183;DHT22;2105;52.300;9.182;2023-07-13T00:01:15;16.30;99.90
4183;DHT22;2105;52.300;9.182;2023-07-13T00:03:42;16.30;1.00
4183;DHT22;2105;52.300;9.182;2023-07-13T00:06:09;16.40;99.90
4183;DHT22;2105;52.300;9.182;2023-07-13T00:08:36;16.30;1.00
4183;DHT22;2105;52.300;9.182;2023-07-13T00:11:03;16.30;1.00
4183;DHT22;2105;52.300;9.182;2023-07-13T00:13:30;16.40;99.90
4183;DHT22;2105;52.300;9.182;2023-07-13T00:15:58;16.50;1.00
4183;DHT22;2105;52.300;9.182;2023-07-13T00:18:27;16.50;1.00
4183;DHT22;2105;52.300;9.182;2023-07-13T00:20:55;16.50;99.90
4183;DHT22;2105;52.300;9.182;2023-07-13T00:23:30;16.60;1.00
4183;DHT22;2105;52.300;9.182;2023-07-13T00:25:59;16.60;1.00
4183;DHT22;2105;52.300;9.182;2023-07-13T00:28:26;16.70;99.90
4183;DHT22;2105;52.300;9.182;2023-07-13T00:30:52;16.80;99.90
4183;DHT22;2105;52.300;9.182;2023-07-13T00:33:19;16.80;43.80
4183;DHT22;2105;52.300;9.182;2023-07-13T00:35:47;16.80;1.00
4183;DHT22;2105;52.300;9.182;2023-07-13T00:38:14;16.80;1.00
4183;DHT22;2105;52.300;9.182;2023-07-13T00:40:41;16.80;1.00
4183;DHT22;2105;52.300;9.182;2023-07-13T00:43:10;16.80;1.00
4183;DHT22;2105;52.300;9.182;2023-07-13T00:46:19;16.80;1.00
4183;DHT22;2105;52.300;9.182;2023-07-13T00:48:47;16.80;1.00
4183;DHT22;2105;52.300;9.182;2023-07-13T00:51:19;16.80;1.00
4183;DHT22;2105;52.300;9.182;2023-07-13T00:53:47;16.80;1.00
4183;DHT22;2105;52.300;9.182;2023-07-13T00:56:14;16.80;1.00
4183;DHT22;2105;52.300;9.182;2023-07-13T00:58:42;16.90;1.00
4183;DHT22;2105;52.300;9.182;2023-07-13T01:01:09;16.90;1.00
4183;DHT22;2105;52.300;9.182;2023-07-13T01:03:37;16.90;1.00
4183;DHT22;2105;52.300;9.182;2023-07-13T01:06:06;16.80;1.00
4183;DHT22;2105;52.300;9.182;2023-07-13T01:08:34;16.80;1.00
4183;DHT22;2105;52.300;9.182;2023-07-13T01:11:01;16.90;1.00
4183;DHT22;2105;52.300;9.182;2023-07-13T01:13:27;16.90;1.00
4183;DHT22;2105;52.300;9.182;2023-07-13T01:15:56;16.90;1.00
4183;DHT22;2105;52.300;9.182;2023-07-13T01:18:26;16.80;1.00
4183;DHT22;2105;52.300;9.182;2023-07-13T01:20:56;16.80;1.00
4183;DHT22;2105;52.300;9.182;2023-07-13T01:23:23;16.90;1.00
4183;DHT22;2105;52.300;9.182;2023-07-13T01:25:51;16.90;1.00
4183;DHT22;2105;52.300;9.182;2023-07-13T01:28:18;16.90;1.00
4183;DHT22;2105;52.300;9.182;2023-07-13T01:30:46;16.90;1.00
4183;DHT22;2105;52.300;9.182;2023-07-13T01:33:15;16.80;1.00
4183;DHT22;2105;52.300;9.182;2023-07-13T01:35:42;16.70;1.00
4183;DHT22;2105;52.300;9.182;2023-07-13T01:38:13;16.60;1.00
4183;DHT22;2105;52.300;9.182;2023-07-13T01:40:40;16.70;1.00
4183;DHT22;2105;52.300;9.182;2023-07-13T01:43:07;16.70;49.10
4183;DHT22;2105;52.300;9.182;2023-07-13T01:45:33;16.70;1.00
4183;DHT22;2105;52.300;9.182;2023-07-13T01:48:00;16.80;1.00
4183;DHT22;2105;52.300;9.182;2023-07-13T01:50:27;16.70;1.00
4183;DHT22;2105;52.300;9.182;2023-07-13T01:52:54;16.70;1.00
4183;DHT22;2105;52.300;9.182;2023-07-13T01:55:22;16.70;1.00
4183;DHT22;2105;52.300;9.182;2023-07-13T01:57:49;16.60;1.00
4183;DHT22;2105;52.300;9.182;2023-07-13T02:00:16;16.50;1.00
4183;DHT22;2105;52.300;9.182;2023-07-13T02:02:43;16.40;1.00
4183;DHT22;2105;52.300;9.182;2023-07-13T02:05:11;16.40;1.00
4183;DHT22;2105;52.300;9.182;2023-07-13T02:07:38;16.40;1.00
4183;DHT22;2105;52.300;9.182;2023-07-13T02:10:05;16.40;1.00
4183;DHT22;2105;52.300;9.182;2023-07-13T02:12:34;16.40;1.00
4183;DHT22;2105;52.300;9.182;2023-07-13T02:15:01;16.30;1.00
4183;DHT22;2105;52.300;9.182;2023-07-13T02:17:27;16.40;1.00
4183;DHT22;2105;52.300;9.182;2023-07-13T02:19:54;16.40;1.00
4183;DHT22;2105;52.300;9.182;2023-07-13T02:22:21;16.40;1.00
4183;DHT22;2105;52.300;9.182;2023-07-13T02:24:48;16.40;1.00
4183;DHT22;2105;52.300;9.182;2023-07-13T02:27:15;16.40;1.00
4183;DHT22;2105;52.300;9.182;2023-07-13T02:29:44;16.40;1.00
4183;DHT22;2105;52.300;9.182;2023-07-13T02:32:11;16.30;1.00
4183;DHT22;2105;52.300;9.182;2023-07-13T02:34:38;16.40;1.00
4183;DHT22;2105;52.300;9.182;2023-07-13T02:37:05;16.40;1.00
4183;DHT22;2105;52.300;9.182;2023-07-13T02:39:31;16.40;1.00
4183;DHT22;2105;52.300;9.182;2023-07-13T02:41:59;16.50;99.90
4183;DHT22;2105;52.300;9.182;2023-07-13T02:44:26;16.60;99.90
4183;DHT22;2105;52.300;9.182;2023-07-13T02:46:54;16.60;99.90
4183;DHT22;2105;52.300;9.182;2023-07-13T02:49:21;16.60;99.90
4183;DHT22;2105;52.300;9.182;2023-07-13T02:51:48;16.60;71.70
4183;DHT22;2105;52.300;9.182;2023-07-13T02:54:14;16.70;1.00
4183;DHT22;2105;52.300;9.182;2023-07-13T02:56:41;16.80;1.00
4183;DHT22;2105;52.300;9.182;2023-07-13T02:59:09;16.80;1.00
4183;DHT22;2105;52.300;9.182;2023-07-13T03:01:35;16.80;1.00
4183;DHT22;2105;52.300;9.182;2023-07-13T03:04:04;16.90;1.00
4183;DHT22;2105;52.300;9.182;2023-07-13T03:06:31;16.90;1.00
4183;DHT22;2105;52.300;9.182;2023-07-13T03:08:58;16.90;1.00
4183;DHT22;2105;52.300;9.182;2023-07-13T03:11:26;16.90;1.00
4183;DHT22;2105;52.300;9.182;2023-07-13T03:13:52;17.10;1.00
4183;DHT22;2105;52.300;9.182;2023-07-13T03:16:19;17.10;1.00
4183;DHT22;2105;52.300;9.182;2023-07-13T03:18:46;17.10;1.00
4183;DHT22;2105;52.300;9.182;2023-07-13T03:21:15;17.20;1.00
4183;DHT22;2105;52.300;9.182;2023-07-13T03:23:41;17.20;1.00
4183;DHT22;2105;52.300;9.182;2023-07-13T03:26:10;17.10;1.00
4183;DHT22;2105;52.300;9.182;2023-07-13T03:28:38;17.10;1.00
4183;DHT22;2105;52.300;9.182;2023-07-13T03:31:07;17.10;1.00
4183;DHT22;2105;52.300;9.182;2023-07-13T03:33:34;17.10;1.00
4183;DHT22;2105;52.300;9.182;2023-07-13T03:36:02;17.10;1.00
4183;DHT22;2105;52.300;9.182;2023-07-13T03:38:30;17.00;27.10
4183;DHT22;2105;52.300;9.182;2023-07-13T03:40:57;17.00;53.50
4183;DHT22;2105;52.300;9.182;2023-07-13T03:43:23;17.00;85.00
4183;DHT22;2105;52.300;9.182;2023-07-13T03:45:50;17.00;44.50
4183;DHT22;2105;52.300;9.182;2023-07-13T03:48:17;17.00;9.00
4183;DHT22;2105;52.300;9.182;2023-07-13T03:50:43;16.90;14.10
4183;DHT22;2105;52.300;9.182;2023-07-13T03:53:10;16.90;21.30
4183;DHT22;2105;52.300;9.182;2023-07-13T03:55:38;16.90;1.00
4183;DHT22;2105;52.300;9.182;2023-07-13T03:58:26;16.90;33.90
4183;DHT22;2105;52.300;9.182;2023-07-13T04:00:54;16.90;1.00
4183;DHT22;2105;52.300;9.182;2023-07-13T04:03:20;16.90;32.60
4183;DHT22;2105;52.300;9.182;2023-07-13T04:05:48;16.90;97.10
4183;DHT22;2105;52.300;9.182;2023-07-13T04:08:15;16.90;99.90
4183;DHT22;2105;52.300;9.182;2023-07-13T04:10:43;16.90;99.90
4183;DHT22;2105;52.300;9.182;2023-07-13T04:13:10;17.00;92.00
4183;DHT22;2105;52.300;9.182;2023-07-13T04:15:37;17.00;99.90
4183;DHT22;2105;52.300;9.182;2023-07-13T04:18:05;17.10;99.90
4183;DHT22;2105;52.300;9.182;2023-07-13T04:20:31;17.10;54.90
4183;DHT22;2105;52.300;9.182;2023-07-13T04:22:58;17.10;64.60
4183;DHT22;2105;52.300;9.182;2023-07-13T04:25:25;17.10;36.00
4183;DHT22;2105;52.300;9.182;2023-07-13T04:27:53;17.10;95.80
4183;DHT22;2105;52.300;9.182;2023-07-13T04:30:20;17.00;99.90
4183;DHT22;2105;52.300;9.182;2023-07-13T04:32:47;17.10;47.90
4183;DHT22;2105;52.300;9.182;2023-07-13T04:35:14;17.10;20.50
4183;DHT22;2105;52.300;9.182;2023-07-13T04:37:41;17.10;26.60
4183;DHT22;2105;52.300;9.182;2023-07-13T04:40:09;17.10;55.20
4183;DHT22;2105;52.300;9.182;2023-07-13T04:42:37;17.20;28.10
4183;DHT22;2105;52.300;9.182;2023-07-13T04:45:07;17.30;99.90
4183;DHT22;2105;52.300;9.182;2023-07-13T04:47:34;17.40;85.20
4183;DHT22;2105;52.300;9.182;2023-07-13T04:50:01;17.50;16.30
4183;DHT22;2105;52.300;9.182;2023-07-13T04:52:27;17.60;1.00
4183;DHT22;2105;52.300;9.182;2023-07-13T04:54:54;17.60;1.00
4183;DHT22;2105;52.300;9.182;2023-07-13T04:57:21;17.60;1.00
4183;DHT22;2105;52.300;9.182;2023-07-13T04:59:48;17.70;1.00
4183;DHT22;2105;52.300;9.182;2023-07-13T05:02:16;17.70;1.00
4183;DHT22;2105;52.300;9.182;2023-07-13T05:04:42;17.70;1.00
4183;DHT22;2105;52.300;9.182;2023-07-13T05:07:09;17.80;1.00
4183;DHT22;2105;52.300;9.182;2023-07-13T05:09:36;17.90;1.00
4183;DHT22;2105;52.300;9.182;2023-07-13T05:12:06;17.80;1.00
4183;DHT22;2105;52.300;9.182;2023-07-13T05:14:33;17.90;1.00
4183;DHT22;2105;52.300;9.182;2023-07-13T05:16:59;17.90;1.00
4183;DHT22;2105;52.300;9.182;2023-07-13T05:19:28;18.00;1.00
4183;DHT22;2105;52.300;9.182;2023-07-13T05:21:55;18.10;1.00
4183;DHT22;2105;52.300;9.182;2023-07-13T05:24:21;18.10;1.00
4183;DHT22;2105;52.300;9.182;2023-07-13T05:26:48;18.10;1.00
4183;DHT22;2105;52.300;9.182;2023-07-13T05:29:15;18.10;99.90
4183;DHT22;2105;52.300;9.182;2023-07-13T05:31:41;18.30;1.00
4183;DHT22;2105;52.300;9.182;2023-07-13T05:34:08;18.30;99.90
4183;DHT22;2105;52.300;9.182;2023-07-13T05:36:36;18.40;1.00
4183;DHT22;2105;52.300;9.182;2023-07-13T05:39:04;18.40;1.00
4183;DHT22;2105;52.300;9.182;2023-07-13T05:41:30;18.30;1.00
4183;DHT22;2105;52.300;9.182;2023-07-13T05:43:57;18.40;1.00
4183;DHT22;2105;52.300;9.182;2023-07-13T05:46:24;18.40;1.00
4183;DHT22;2105;52.300;9.182;2023-07-13T05:48:51;18.10;1.00
4183;DHT22;2105;52.300;9.182;2023-07-13T05:51:18;18.10;61.60
4183;DHT22;2105;52.300;9.182;2023-07-13T05:53:46;18.10;1.00
4183;DHT22;2105;52.300;9.182;2023-07-13T05:56:13;18.10;1.00
4183;DHT22;2105;52.300;9.182;2023-07-13T05:58:39;18.00;8.80
4183;DHT22;2105;52.300;9.182;2023-07-13T06:01:10;17.90;48.40
4183;DHT22;2105;52.300;9.182;2023-07-13T06:03:38;17.90;40.60
4183;DHT22;2105;52.300;9.182;2023-07-13T06:06:05;18.00;42.80
4183;DHT22;2105;52.300;9.182;2023-07-13T06:08:33;18.00;51.50
4183;DHT22;2105;52.300;9.182;2023-07-13T06:11:06;18.00;85.40
4183;DHT22;2105;52.300;9.182;2023-07-13T06:13:33;18.10;53.40
4183;DHT22;2105;52.300;9.182;2023-07-13T06:16:00;18.20;1.00
4183;DHT22;2105;52.300;9.182;2023-07-13T06:18:29;18.20;99.90
4183;DHT22;2105;52.300;9.182;2023-07-13T06:20:56;18.20;99.90
4183;DHT22;2105;52.300;9.182;2023-07-13T06:23:23;18.30;99.90
4183;DHT22;2105;52.300;9.182;2023-07-13T06:25:50;18.20;99.90
4183;DHT22;2105;52.300;9.182;2023-07-13T06:28:18;18.30;99.90
4183;DHT22;2105;52.300;9.182;2023-07-13T06:30:45;18.30;99.90
4183;DHT22;2105;52.300;9.182;2023-07-13T06:33:11;18.40;99.90
4183;DHT22;2105;52.300;9.182;2023-07-13T06:35:38;18.40;99.90
4183;DHT22;2105;52.300;9.182;2023-07-13T06:38:05;18.40;99.90
4183;DHT22;2105;52.300;9.182;2023-07-13T06:40:32;18.30;99.90
4183;DHT22;2105;52.300;9.182;2023-07-13T06:42:58;18.40;99.90
4183;DHT22;2105;52.300;9.182;2023-07-13T06:45:26;18.50;99.90
4183;DHT22;2105;52.300;9.182;2023-07-13T06:47:53;18.60;18.80
4183;DHT22;2105;52.300;9.182;2023-07-13T06:50:20;18.70;99.90
4183;DHT22;2105;52.300;9.182;2023-07-13T06:52:47;18.70;99.90
4183;DHT22;2105;52.300;9.182;2023-07-13T06:55:14;18.70;99.90
4183;DHT22;2105;52.300;9.182;2023-07-13T06:57:40;18.70;99.90
4183;DHT22;2105;52.300;9.182;2023-07-13T07:00:08;18.80;99.90
4183;DHT22;2105;52.300;9.182;2023-07-13T07:02:36;18.80;99.90
4183;DHT22;2105;52.300;9.182;2023-07-13T07:05:03;19.00;99.90
4183;DHT22;2105;52.300;9.182;2023-07-13T07:07:30;19.40;99.90
4183;DHT22;2105;52.300;9.182;2023-07-13T07:09:57;19.60;99.90
4183;DHT22;2105;52.300;9.182;2023-07-13T07:12:23;19.80;99.90
4183;DHT22;2105;52.300;9.182;2023-07-13T07:14:50;19.90;99.90
4183;DHT22;2105;52.300;9.182;2023-07-13T07:17:17;20.00;56.20
4183;DHT22;2105;52.300;9.182;2023-07-13T07:19:45;20.20;14.30
4183;DHT22;2105;52.300;9.182;2023-07-13T07:22:12;20.00;26.70
4183;DHT22;2105;52.300;9.182;2023-07-13T07:24:39;20.40;1.00
4183;DHT22;2105;52.300;9.182;2023-07-13T07:27:06;20.60;1.00
4183;DHT22;2105;52.300;9.182;2023-07-13T07:29:32;20.30;1.00
4183;DHT22;2105;52.300;9.182;2023-07-13T07:31:59;20.60;1.00
4183;DHT22;2105;52.300;9.182;2023-07-13T07:34:26;20.30;1.00
4183;DHT22;2105;52.300;9.182;2023-07-13T07:36:54;19.90;1.00
4183;DHT22;2105;52.300;9.182;2023-07-13T07:39:21;19.70;24.30
4183;DHT22;2105;52.300;9.182;2023-07-13T07:41:48;19.60;98.60
4183;DHT22;2105;52.300;9.182;2023-07-13T07:44:14;19.50;90.20
4183;DHT22;2105;52.300;9.182;2023-07-13T07:46:41;19.60;99.90
4183;DHT22;2105;52.300;9.182;2023-07-13T07:49:08;20.10;85.00
4183;DHT22;2105;52.300;9.182;2023-07-13T07:51:34;20.70;1.00
4183;DHT22;2105;52.300;9.182;2023-07-13T07:54:02;20.50;1.00
4183;DHT22;2105;52.300;9.182;2023-07-13T07:56:29;20.20;32.20
4183;DHT22;2105;52.300;9.182;2023-07-13T07:58:56;19.90;85.20
4183;DHT22;2105;52.300;9.182;2023-07-13T08:01:23;19.70;99.90
4183;DHT22;2105;52.300;9.182;2023-07-13T08:03:49;19.60;99.90
4183;DHT22;2105;52.300;9.182;2023-07-13T08:06:16;19.50;99.90
4183;DHT22;2105;52.300;9.182;2023-07-13T08:08:45;19.40;99.90
4183;DHT22;2105;52.300;9.182;2023-07-13T08:11:13;19.70;99.90
4183;DHT22;2105;52.300;9.182;2023-07-13T08:13:40;20.10;99.90
4183;DHT22;2105;52.300;9.182;2023-07-13T08:16:07;20.40;56.30
4183;DHT22;2105;52.300;9.182;2023-07-13T08:18:33;20.60;55.10
4183;DHT22;2105;52.300;9.182;2023-07-13T08:21:03;20.60;1.00
4183;DHT22;2105;52.300;9.182;2023-07-13T08:23:30;20.50;1.00
4183;DHT22;2105;52.300;9.182;2023-07-13T08:25:57;20.40;1.00
4183;DHT22;2105;52.300;9.182;2023-07-13T08:28:28;20.60;45.80
4183;DHT22;2105;52.300;9.182;2023-07-13T08:30:55;20.80;1.00
4183;DHT22;2105;52.300;9.182;2023-07-13T08:33:22;20.80;1.00
4183;DHT22;2105;52.300;9.182;2023-07-13T08:35:50;20.90;1.00
4183;DHT22;2105;52.300;9.182;2023-07-13T08:38:18;21.10;1.00
4183;DHT22;2105;52.300;9.182;2023-07-13T08:40:50;20.90;1.00
4183;DHT22;2105;52.300;9.182;2023-07-13T08:43:20;21.00;1.00
4183;DHT22;2105;52.300;9.182;2023-07-13T08:45:53;20.90;2.60
4183;DHT22;2105;52.300;9.182;2023-07-13T08:48:26;20.80;1.00
4183;DHT22;2105;52.300;9.182;2023-07-13T08:50:57;21.00;1.00
4183;DHT22;2105;52.300;9.182;2023-07-13T08:53:31;21.00;1.00
4183;DHT22;2105;52.300;9.182;2023-07-13T08:55:59;21.00;1.00
4183;DHT22;2105;52.300;9.182;2023-07-13T08:58:27;20.90;1.00
4183;DHT22;2105;52.300;9.182;2023-07-13T09:01:02;21.20;1.00
4183;DHT22;2105;52.300;9.182;2023-07-13T09:03:38;21.50;1.00
4183;DHT22;2105;52.300;9.182;2023-07-13T09:06:08;21.50;22.90
4183;DHT22;2105;52.300;9.182;2023-07-13T09:08:45;21.60;99.90
4183;DHT22;2105;52.300;9.182;2023-07-13T09:11:23;21.50;99.90
4183;DHT22;2105;52.300;9.182;2023-07-13T09:14:00;21.50;99.90
4183;DHT22;2105;52.300;9.182;2023-07-13T09:16:30;21.60;99.90
4183;DHT22;2105;52.300;9.182;2023-07-13T09:19:00;21.70;1.00
4183;DHT22;2105;52.300;9.182;2023-07-13T09:21:31;21.90;1.00
4183;DHT22;2105;52.300;9.182;2023-07-13T09:24:01;21.80;1.00
4183;DHT22;2105;52.300;9.182;2023-07-13T09:26:30;22.00;1.00
4183;DHT22;2105;52.300;9.182;2023-07-13T09:29:03;22.10;1.00
4183;DHT22;2105;52.300;9.182;2023-07-13T09:31:41;21.90;99.90
4183;DHT22;2105;52.300;9.182;2023-07-13T09:34:10;21.70;1.00
4183;DHT22;2105;52.300;9.182;2023-07-13T09:36:37;21.70;1.00
4183;DHT22;2105;52.300;9.182;2023-07-13T09:39:12;22.20;99.90
4183;DHT22;2105;52.300;9.182;2023-07-13T09:41:45;22.30;99.90
4183;DHT22;2105;52.300;9.182;2023-07-13T09:44:15;22.30;99.90
4183;DHT22;2105;52.300;9.182;2023-07-13T09:46:47;22.40;99.90
4183;DHT22;2105;52.300;9.182;2023-07-13T09:49:22;22.60;99.90
4183;DHT22;2105;52.300;9.182;2023-07-13T09:51:58;22.50;99.90
4183;DHT22;2105;52.300;9.182;2023-07-13T09:54:26;22.10;99.90
4183;DHT22;2105;52.300;9.182;2023-07-13T09:56:54;22.00;99.90
4183;DHT22;2105;52.300;9.182;2023-07-13T09:59:27;21.80;99.90
4183;DHT22;2105;52.300;9.182;2023-07-13T10:01:56;21.90;99.90
4183;DHT22;2105;52.300;9.182;2023-07-13T10:04:30;22.40;99.90
4183;DHT22;2105;52.300;9.182;2023-07-13T10:07:05;22.60;99.90
4183;DHT22;2105;52.300;9.182;2023-07-13T10:09:32;22.30;99.90
4183;DHT22;2105;52.300;9.182;2023-07-13T10:11:59;22.40;99.90
4183;DHT22;2105;52.300;9.182;2023-07-13T10:14:27;22.40;99.90
4183;DHT22;2105;52.300;9.182;2023-07-13T10:16:58;22.30;99.90
4183;DHT22;2105;52.300;9.182;2023-07-13T10:19:31;22.70;99.90
4183;DHT22;2105;52.300;9.182;2023-07-13T10:22:00;23.10;99.90
4183;DHT22;2105;52.300;9.182;2023-07-13T10:24:31;23.00;99.90
4183;DHT22;2105;52.300;9.182;2023-07-13T10:27:01;22.90;99.90
4183;DHT22;2105;52.300;9.182;2023-07-13T10:29:34;23.10;99.90
4183;DHT22;2105;52.300;9.182;2023-07-13T10:32:08;23.50;99.90
4183;DHT22;2105;52.300;9.182;2023-07-13T10:34:36;23.70;99.90
4183;DHT22;2105;52.300;9.182;2023-07-13T10:37:03;23.50;99.90
4183;DHT22;2105;52.300;9.182;2023-07-13T10:39:34;23.70;99.90
4183;DHT22;2105;52.300;9.182;2023-07-13T10:42:05;23.70;99.90
4183;DHT22;2105;52.300;9.182;2023-07-13T10:44:33;24.10;99.90
4183;DHT22;2105;52.300;9.182;2023-07-13T10:47:03;24.10;99.90
4183;DHT22;2105;52.300;9.182;2023-07-13T10:49:33;23.80;99.90
4183;DHT22;2105;52.300;9.182;2023-07-13T10:52:01;23.70;99.90
4183;DHT22;2105;52.300;9.182;2023-07-13T10:54:31;23.50;99.90
4183;DHT22;2105;52.300;9.182;2023-07-13T10:57:15;23.40;99.90
4183;DHT22;2105;52.300;9.182;2023-07-13T10:59:43;23.50;99.90
4183;DHT22;2105;52.300;9.182;2023-07-13T11:02:23;24.00;99.90
4183;DHT22;2105;52.300;9.182;2023-07-13T11:04:53;24.40;99.90
4183;DHT22;2105;52.300;9.182;2023-07-13T11:07:22;24.60;99.90
4183;DHT22;2105;52.300;9.182;2023-07-13T11:09:51;24.50;99.90
4183;DHT22;2105;52.300;9.182;2023-07-13T11:12:49;24.50;99.90
4183;DHT22;2105;52.300;9.182;2023-07-13T11:15:29;24.50;99.90
4183;DHT22;2105;52.300;9.182;2023-07-13T11:18:02;24.10;99.90
4183;DHT22;2105;52.300;9.182;2023-07-13T11:20:37;23.80;99.90
4183;DHT22;2105;52.300;9.182;2023-07-13T11:23:29;23.60;99.90
4183;DHT22;2105;52.300;9.182;2023-07-13T11:25:56;23.70;99.90
4183;DHT22;2105;52.300;9.182;2023-07-13T11:28:26;23.60;99.90
4183;DHT22;2105;52.300;9.182;2023-07-13T11:33:53;24.00;99.90
4183;DHT22;2105;52.300;9.182;2023-07-13T11:36:21;24.20;99.90
4183;DHT22;2105;52.300;9.182;2023-07-13T11:38:57;24.30;99.90
4183;DHT22;2105;52.300;9.182;2023-07-13T11:41:27;24.60;99.90
4183;DHT22;2105;52.300;9.182;2023-07-13T11:44:01;24.80;99.90
4183;DHT22;2105;52.300;9.182;2023-07-13T11:46:31;24.90;99.90
4183;DHT22;2105;52.300;9.182;2023-07-13T11:48:59;24.90;99.90
4183;DHT22;2105;52.300;9.182;2023-07-13T11:51:29;24.70;99.90
4183;DHT22;2105;52.300;9.182;2023-07-13T11:54:00;24.70;99.90
4183;DHT22;2105;52.300;9.182;2023-07-13T11:56:27;25.00;99.90
4183;DHT22;2105;52.300;9.182;2023-07-13T11:58:56;24.90;99.90
4183;DHT22;2105;52.300;9.182;2023-07-13T12:01:26;24.70;99.90
4183;DHT22;2105;52.300;9.182;2023-07-13T12:03:55;24.50;99.90
4183;DHT22;2105;52.300;9.182;2023-07-13T12:06:26;24.10;99.90
4183;DHT22;2105;52.300;9.182;2023-07-13T12:08:56;23.70;99.90
4183;DHT22;2105;52.300;9.182;2023-07-13T12:11:23;23.50;99.90
4183;DHT22;2105;52.300;9.182;2023-07-13T12:13:50;23.30;99.90
4183;DHT22;2105;52.300;9.182;2023-07-13T12:16:29;23.20;99.90
4183;DHT22;2105;52.300;9.182;2023-07-13T12:18:59;23.00;99.90
4183;DHT22;2105;52.300;9.182;2023-07-13T12:21:31;22.80;99.90
4183;DHT22;2105;52.300;9.182;2023-07-13T12:23:58;22.70;99.90
4183;DHT22;2105;52.300;9.182;2023-07-13T12:26:28;22.60;99.90
4183;DHT22;2105;52.300;9.182;2023-07-13T12:28:55;22.60;99.90
4183;DHT22;2105;52.300;9.182;2023-07-13T12:31:31;22.50;99.90
4183;DHT22;2105;52.300;9.182;2023-07-13T12:34:02;22.40;99.90
4183;DHT22;2105;52.300;9.182;2023-07-13T12:36:32;22.30;99.90
4183;DHT22;2105;52.300;9.182;2023-07-13T12:39:04;22.80;99.90
4183;DHT22;2105;52.300;9.182;2023-07-13T12:41:32;23.20;99.90
4183;DHT22;2105;52.300;9.182;2023-07-13T12:44:00;23.80;99.90
4183;DHT22;2105;52.300;9.182;2023-07-13T12:46:27;24.50;99.90
4183;DHT22;2105;52.300;9.182;2023-07-13T12:48:57;24.60;99.90
4183;DHT22;2105;52.300;9.182;2023-07-13T12:51:26;24.30;99.90
4183;DHT22;2105;52.300;9.182;2023-07-13T12:53:59;23.80;99.90
4183;DHT22;2105;52.300;9.182;2023-07-13T12:56:33;23.50;99.90
4183;DHT22;2105;52.300;9.182;2023-07-13T12:59:02;23.70;99.90
4183;DHT22;2105;52.300;9.182;2023-07-13T13:01:33;24.40;99.90
4183;DHT22;2105;52.300;9.182;2023-07-13T13:04:03;24.50;99.90
4183;DHT22;2105;52.300;9.182;2023-07-13T13:06:32;24.20;99.90
4183;DHT22;2105;52.300;9.182;2023-07-13T13:09:03;23.90;99.90
4183;DHT22;2105;52.300;9.182;2023-07-13T13:11:31;23.70;99.90
4183;DHT22;2105;52.300;9.182;2023-07-13T13:13:59;23.20;99.90
4183;DHT22;2105;52.300;9.182;2023-07-13T13:16:31;22.70;99.90
4183;DHT22;2105;52.300;9.182;2023-07-13T13:19:01;21.90;99.90
4183;DHT22;2105;52.300;9.182;2023-07-13T13:21:32;21.40;99.90
4183;DHT22;2105;52.300;9.182;2023-07-13T13:23:59;21.00;99.90
4183;DHT22;2105;52.300;9.182;2023-07-13T13:26:28;20.70;99.90
4183;DHT22;2105;52.300;9.182;2023-07-13T13:28:56;20.40;1.00
4183;DHT22;2105;52.300;9.182;2023-07-13T13:31:23;20.20;47.80
4183;DHT22;2105;52.300;9.182;2023-07-13T13:33:49;20.00;1.00
4183;DHT22;2105;52.300;9.182;2023-07-13T13:36:18;19.80;99.90
4183;DHT22;2105;52.300;9.182;2023-07-13T13:38:45;19.70;1.00
4183;DHT22;2105;52.300;9.182;2023-07-13T13:41:13;19.50;1.00
4183;DHT22;2105;52.300;9.182;2023-07-13T13:43:42;19.50;99.90
4183;DHT22;2105;52.300;9.182;2023-07-13T13:46:14;19.60;69.20
4183;DHT22;2105;52.300;9.182;2023-07-13T13:48:43;19.60;1.00
4183;DHT22;2105;52.300;9.182;2023-07-13T13:51:15;19.40;99.90
4183;DHT22;2105;52.300;9.182;2023-07-13T13:53:43;19.30;35.30
4183;DHT22;2105;52.300;9.182;2023-07-13T13:56:11;19.10;1.00
4183;DHT22;2105;52.300;9.182;2023-07-13T13:58:37;18.80;99.90
4183;DHT22;2105;52.300;9.182;2023-07-13T14:01:12;18.60;99.90
4183;DHT22;2105;52.300;9.182;2023-07-13T14:03:40;18.30;99.90
4183;DHT22;2105;52.300;9.182;2023-07-13T14:06:09;18.00;99.90
4183;DHT22;2105;52.300;9.182;2023-07-13T14:08:37;17.90;91.70
4183;DHT22;2105;52.300;9.182;2023-07-13T14:11:04;17.70;99.90
4183;DHT22;2105;52.300;9.182;2023-07-13T14:13:35;17.60;1.00
4183;DHT22;2105;52.300;9.182;2023-07-13T14:16:04;17.40;99.90
4183;DHT22;2105;52.300;9.182;2023-07-13T14:18:34;17.30;1.00
4183;DHT22;2105;52.300;9.182;2023-07-13T14:21:01;17.10;77.20
4183;DHT22;2105;52.300;9.182;2023-07-13T14:23:28;17.00;99.90
4183;DHT22;2105;52.300;9.182;2023-07-13T14:25:55;17.00;1.00
4183;DHT22;2105;52.300;9.182;2023-07-13T14:28:24;16.90;1.00
4183;DHT22;2105;52.300;9.182;2023-07-13T14:30:52;16.70;1.00
4183;DHT22;2105;52.300;9.182;2023-07-13T14:33:20;16.70;1.00
4183;DHT22;2105;52.300;9.182;2023-07-13T14:35:49;16.60;99.90
4183;DHT22;2105;52.300;9.182;2023-07-13T14:38:19;16.60;99.90
4183;DHT22;2105;52.300;9.182;2023-07-13T14:40:46;16.60;78.90
4183;DHT22;2105;52.300;9.182;2023-07-13T14:43:14;16.70;99.90
4183;DHT22;2105;52.300;9.182;2023-07-13T14:45:42;16.70;99.90
4183;DHT22;2105;52.300;9.182;2023-07-13T14:48:14;16.90;99.90
4183;DHT22;2105;52.300;9.182;2023-07-13T14:50:42;16.80;1.00
4183;DHT22;2105;52.300;9.182;2023-07-13T14:53:11;16.70;99.90
4183;DHT22;2105;52.300;9.182;2023-07-13T14:55:38;16.60;1.00
4183;DHT22;2105;52.300;9.182;2023-07-13T14:58:06;16.30;1.00
4183;DHT22;2105;52.300;9.182;2023-07-13T15:00:33;16.10;99.90
4183;DHT22;2105;52.300;9.182;2023-07-13T15:03:00;15.90;64.50
4183;DHT22;2105;52.300;9.182;2023-07-13T15:05:29;16.10;1.00
4183;DHT22;2105;52.300;9.182;2023-07-13T15:07:58;16.20;1.00
4183;DHT22;2105;52.300;9.182;2023-07-13T15:10:27;16.20;1.00
4183;DHT22;2105;52.300;9.182;2023-07-13T15:12:58;16.20;1.00
4183;DHT22;2105;52.300;9.182;2023-07-13T15:15:25;16.30;99.90
4183;DHT22;2105;52.300;9.182;2023-07-13T15:17:51;16.40;99.90
4183;DHT22;2105;52.300;9.182;2023-07-13T15:20:23;16.70;1.00
4183;DHT22;2105;52.300;9.182;2023-07-13T15:22:52;16.80;1.00
4183;DHT22;2105;52.300;9.182;2023-07-13T15:25:20;17.00;99.90
4183;DHT22;2105;52.300;9.182;2023-07-13T15:27:49;17.20;99.90
4183;DHT22;2105;52.300;9.182;2023-07-13T15:30:16;17.30;19.60
4183;DHT22;2105;52.300;9.182;2023-07-13T15:32:44;17.30;99.90
4183;DHT22;2105;52.300;9.182;2023-07-13T15:35:17;17.30;99.90
4183;DHT22;2105;52.300;9.182;2023-07-13T15:37:44;17.20;1.00
4183;DHT22;2105;52.300;9.182;2023-07-13T15:40:12;17.10;1.00
4183;DHT22;2105;52.300;9.182;2023-07-13T15:42:40;17.10;1.00
4183;DHT22;2105;52.300;9.182;2023-07-13T15:45:20;17.20;1.00
4183;DHT22;2105;52.300;9.182;2023-07-13T15:47:48;17.20;99.90
4183;DHT22;2105;52.300;9.182;2023-07-13T15:50:17;17.10;99.90
4183;DHT22;2105;52.300;9.182;2023-07-13T15:52:48;17.10;99.90
4183;DHT22;2105;52.300;9.182;2023-07-13T15:55:15;17.00;1.00
4183;DHT22;2105;52.300;9.182;2023-07-13T15:57:44;17.00;1.00
4183;DHT22;2105;52.300;9.182;2023-07-13T16:00:18;17.10;99.90
4183;DHT22;2105;52.300;9.182;2023-07-13T16:02:46;17.10;99.90
4183;DHT22;2105;52.300;9.182;2023-07-13T16:05:14;17.10;99.90
4183;DHT22;2105;52.300;9.182;2023-07-13T16:07:41;17.10;1.00
4183;DHT22;2105;52.300;9.182;2023-07-13T16:10:13;17.10;1.00
4183;DHT22;2105;52.300;9.182;2023-07-13T16:12:40;17.10;99.90
4183;DHT22;2105;52.300;9.182;2023-07-13T16:15:12;17.10;1.00
4183;DHT22;2105;52.300;9.182;2023-07-13T16:17:40;17.20;1.00
4183;DHT22;2105;52.300;9.182;2023-07-13T16:20:08;17.10;99.90
4183;DHT22;2105;52.300;9.182;2023-07-13T16:22:37;17.20;1.00